createdAt,value
2019-01-14T00:02:01.871Z,0.67
2019-01-14T00:04:34.719Z,0.70
2019-01-14T00:07:07.427Z,0.50
2019-01-14T00:09:39.630Z,0.70
2019-01-14T00:12:11.931Z,0.93
2019-01-14T00:14:44.280Z,0.70
2019-01-14T00:17:16.784Z,0.73
2019-01-14T00:19:49.076Z,0.70
2019-01-14T00:22:21.283Z,0.80
2019-01-14T00:24:53.488Z,0.60
2019-01-14T00:27:25.904Z,0.70
2019-01-14T00:29:58.118Z,0.70
2019-01-14T00:32:30.417Z,1.20
2019-01-14T00:35:02.936Z,0.70
2019-01-14T00:37:35.143Z,0.83
2019-01-14T00:40:10.695Z,1.00
2019-01-14T00:42:43.382Z,0.87
2019-01-14T00:45:15.937Z,0.80
2019-01-14T00:47:48.344Z,0.80
2019-01-14T00:50:20.759Z,1.13
2019-01-14T00:52:53.164Z,0.60
2019-01-14T00:55:25.535Z,0.77
2019-01-14T00:57:57.830Z,0.70
2019-01-14T01:00:30.343Z,1.07
2019-01-14T01:03:02.739Z,0.90
2019-01-14T01:05:35.133Z,0.83
2019-01-14T01:08:07.570Z,1.13
2019-01-14T01:10:39.992Z,0.67
2019-01-14T01:13:12.400Z,0.93
2019-01-14T01:15:44.714Z,0.90
2019-01-14T01:18:17.017Z,1.13
2019-01-14T01:20:49.797Z,1.10
2019-01-14T01:23:22.019Z,0.93
2019-01-14T01:25:54.236Z,0.80
2019-01-14T01:28:26.540Z,1.00
2019-01-14T01:30:58.753Z,1.00
2019-01-14T01:33:31.173Z,0.90
2019-01-14T01:36:03.392Z,1.13
2019-01-14T01:38:35.895Z,1.00
2019-01-14T01:41:08.305Z,0.70
2019-01-14T01:43:40.618Z,1.10
2019-01-14T01:46:13.036Z,0.80
2019-01-14T01:48:45.335Z,1.10
2019-01-14T01:51:17.746Z,0.97
2019-01-14T01:53:49.971Z,0.97
2019-01-14T01:56:22.318Z,1.00
2019-01-14T01:58:54.730Z,1.03
2019-01-14T02:01:27.137Z,1.10
2019-01-14T02:03:59.994Z,0.80
2019-01-14T02:06:38.991Z,1.33
2019-01-14T02:09:08.375Z,0.90
2019-01-14T02:11:40.887Z,1.23
2019-01-14T02:14:13.680Z,1.10
2019-01-14T02:16:46.273Z,1.17
2019-01-14T02:19:18.585Z,1.10
2019-01-14T02:21:50.900Z,1.03
2019-01-14T02:24:23.107Z,1.60
2019-01-14T02:26:55.324Z,1.20
2019-01-14T02:29:27.498Z,1.13
2019-01-14T02:31:59.713Z,1.17
2019-01-14T02:34:31.883Z,1.60
2019-01-14T02:37:04.302Z,1.23
2019-01-14T02:39:36.475Z,1.10
2019-01-14T02:42:08.892Z,1.07
2019-01-14T02:44:41.049Z,1.53
2019-01-14T02:47:13.356Z,0.87
2019-01-14T02:49:45.572Z,1.20
2019-01-14T02:52:17.877Z,1.00
2019-01-14T02:54:50.143Z,2.00
2019-01-14T02:57:22.462Z,1.10
2019-01-14T02:59:56.073Z,1.10
2019-01-14T03:02:28.519Z,0.97
2019-01-14T03:05:00.868Z,1.00
2019-01-14T03:07:33.169Z,1.10
2019-01-14T03:10:07.120Z,1.10
2019-01-14T03:12:39.425Z,0.97
2019-01-14T03:15:12.337Z,1.30
2019-01-14T03:17:44.745Z,1.10
2019-01-14T03:20:17.508Z,1.00
2019-01-14T03:22:50.030Z,0.90
2019-01-14T03:25:22.297Z,0.90
2019-01-14T03:27:54.502Z,0.87
2019-01-14T03:30:26.880Z,1.00
2019-01-14T03:32:59.249Z,0.90
2019-01-14T03:35:31.516Z,1.00
2019-01-14T03:38:04.023Z,1.10
2019-01-14T03:40:36.190Z,0.83
2019-01-14T03:43:08.691Z,1.00
2019-01-14T03:45:41.218Z,0.90
2019-01-14T03:48:13.745Z,0.90
2019-01-14T03:50:46.255Z,1.13
2019-01-14T03:53:18.713Z,1.20
2019-01-14T03:55:51.070Z,1.37
2019-01-14T03:58:23.582Z,1.00
2019-01-14T04:00:55.847Z,0.60
2019-01-14T04:03:28.051Z,0.50
2019-01-14T04:06:00.414Z,0.80
2019-01-14T04:08:32.828Z,0.83
2019-01-14T04:11:05.195Z,0.83
2019-01-14T04:13:37.514Z,0.80
2019-01-14T04:16:09.688Z,0.70
2019-01-14T04:18:41.999Z,0.70
2019-01-14T04:21:14.363Z,0.70
2019-01-14T04:23:46.883Z,0.83
2019-01-14T04:26:19.351Z,0.70
2019-01-14T04:28:51.666Z,0.77
2019-01-14T04:31:23.835Z,0.70
2019-01-14T04:33:56.857Z,0.83
2019-01-14T04:36:29.224Z,0.87
2019-01-14T04:39:02.708Z,0.60
2019-01-14T04:41:34.971Z,0.90
2019-01-14T04:44:07.387Z,0.80
2019-01-14T04:46:40.484Z,0.90
2019-01-14T04:49:12.900Z,0.73
2019-01-14T04:51:45.068Z,0.60
2019-01-14T04:54:17.420Z,0.77
2019-01-14T04:56:49.580Z,0.77
2019-01-14T04:59:21.869Z,0.70
2019-01-14T05:01:54.139Z,0.57
2019-01-14T05:04:26.477Z,0.67
2019-01-14T05:06:58.707Z,0.60
2019-01-14T05:09:30.908Z,0.73
2019-01-14T05:12:03.156Z,0.60
2019-01-14T05:14:35.375Z,0.67
2019-01-14T05:17:07.647Z,0.67
2019-01-14T05:19:39.960Z,0.80
2019-01-14T05:22:12.426Z,0.70
2019-01-14T05:24:44.817Z,0.80
2019-01-14T05:27:17.185Z,0.53
2019-01-14T05:29:49.400Z,0.60
2019-01-14T05:32:21.572Z,0.70
2019-01-14T05:34:53.987Z,0.60
2019-01-14T05:37:26.272Z,0.93
2019-01-14T05:39:58.582Z,0.87
2019-01-14T05:42:31.041Z,0.40
2019-01-14T05:45:03.260Z,0.67
2019-01-14T05:47:35.628Z,0.40
2019-01-14T05:50:09.535Z,0.60
2019-01-14T05:52:41.938Z,0.73
2019-01-14T05:58:44.006Z,0.60
2019-01-14T06:01:16.389Z,0.50
2019-01-14T06:03:48.561Z,0.30
2019-01-14T06:06:20.951Z,0.43
2019-01-14T06:08:53.514Z,0.20
2019-01-14T06:11:25.715Z,0.17
2019-01-14T06:13:57.899Z,0.40
2019-01-14T06:16:30.214Z,0.20
2019-01-14T06:19:02.377Z,0.20
2019-01-14T06:21:34.698Z,0.27
2019-01-14T06:24:07.265Z,0.40
2019-01-14T06:26:39.683Z,0.47
2019-01-14T06:29:11.843Z,0.50
2019-01-14T06:31:44.453Z,0.53
2019-01-14T06:34:16.617Z,0.43
2019-01-14T06:36:48.834Z,0.33
2019-01-14T06:39:21.103Z,0.30
2019-01-14T06:41:53.310Z,0.40
2019-01-14T06:44:25.478Z,0.43
2019-01-14T06:46:57.887Z,0.30
2019-01-14T06:49:30.145Z,0.80
2019-01-14T06:52:02.463Z,0.47
2019-01-14T06:54:34.630Z,0.40
2019-01-14T06:57:07.185Z,0.73
2019-01-14T06:59:41.014Z,0.40
2019-01-14T07:02:13.631Z,0.53
2019-01-14T07:04:45.892Z,0.77
2019-01-14T07:07:18.204Z,0.80
2019-01-14T07:09:50.565Z,0.43
2019-01-14T07:12:22.774Z,0.60
2019-01-14T07:14:54.934Z,1.10
2019-01-14T07:17:27.343Z,0.50
2019-01-14T07:19:59.507Z,0.60
2019-01-14T07:22:31.822Z,0.63
2019-01-14T07:25:04.261Z,0.67
2019-01-14T07:27:36.577Z,0.50
2019-01-14T07:30:12.953Z,0.50
2019-01-14T07:32:45.369Z,0.83
2019-01-14T07:35:17.834Z,0.57
2019-01-14T07:37:50.666Z,0.53
2019-01-14T07:40:23.163Z,2.87
2019-01-14T07:42:55.572Z,1.13
2019-01-14T07:45:28.025Z,1.07
2019-01-14T07:48:00.254Z,2.00
2019-01-14T07:50:32.414Z,3.30
2019-01-14T07:53:04.941Z,2.70
2019-01-14T07:55:37.398Z,4.10
2019-01-14T07:58:09.804Z,2.60
2019-01-14T08:00:42.060Z,4.67
2019-01-14T08:03:14.566Z,5.00
2019-01-14T08:05:46.731Z,5.00
2019-01-14T08:08:18.939Z,4.70
2019-01-14T08:10:51.309Z,5.73
2019-01-14T08:13:23.525Z,4.50
2019-01-14T08:15:55.787Z,3.07
2019-01-14T08:18:28.092Z,3.33
2019-01-14T08:21:00.559Z,5.47
2019-01-14T08:23:32.769Z,8.17
2019-01-14T08:26:05.149Z,6.50
2019-01-14T08:28:37.550Z,5.07
2019-01-14T08:31:09.825Z,3.67
2019-01-14T08:33:42.031Z,6.93
2019-01-14T08:36:14.396Z,3.33
2019-01-14T08:38:46.849Z,14.90
2019-01-14T08:41:20.024Z,6.63
2019-01-14T08:43:56.585Z,3.10
2019-01-14T08:46:29.824Z,1.90
2019-01-14T08:49:02.035Z,8.17
2019-01-14T08:51:34.538Z,13.47
2019-01-14T08:54:07.198Z,6.97
2019-01-14T08:56:39.620Z,2.63
2019-01-14T08:59:11.836Z,2.43
2019-01-14T09:01:44.081Z,7.50
2019-01-14T09:04:22.235Z,4.83
2019-01-14T09:06:50.377Z,3.33
2019-01-14T09:09:22.796Z,3.17
2019-01-14T09:11:55.054Z,2.30
2019-01-14T09:14:27.354Z,2.83
2019-01-14T09:16:59.734Z,2.60
2019-01-14T09:19:32.152Z,1.60
2019-01-14T09:22:04.783Z,1.07
2019-01-14T09:24:36.990Z,1.27
2019-01-14T09:27:09.160Z,7.93
2019-01-14T09:29:41.507Z,15.80
2019-01-14T09:32:14.237Z,10.83
2019-01-14T09:34:47.103Z,37.37
2019-01-14T09:37:19.629Z,14.87
2019-01-14T09:39:51.956Z,1.50
2019-01-14T09:42:27.964Z,1.60
2019-01-14T09:44:58.017Z,1.00
2019-01-14T09:47:30.323Z,0.50
2019-01-14T09:50:02.711Z,0.70
2019-01-14T09:52:34.985Z,0.50
2019-01-14T09:55:10.738Z,1.37
2019-01-14T09:57:43.064Z,3.30
2019-01-14T10:00:15.677Z,2.83
2019-01-14T10:02:48.336Z,1.40
2019-01-14T10:05:21.689Z,1.63
2019-01-14T10:07:54.052Z,1.43
2019-01-14T10:10:26.362Z,4.53
2019-01-14T10:12:58.711Z,1.50
2019-01-14T10:15:30.911Z,0.93
2019-01-14T10:18:05.098Z,2.80
2019-01-14T10:20:37.561Z,1.50
2019-01-14T10:23:10.029Z,1.20
2019-01-14T10:25:43.134Z,1.40
2019-01-14T10:28:15.400Z,1.13
2019-01-14T10:30:47.913Z,1.43
2019-01-14T10:33:20.283Z,1.93
2019-01-14T10:35:52.871Z,1.17
2019-01-14T10:38:25.131Z,1.43
2019-01-14T10:40:57.341Z,1.57
2019-01-14T10:43:29.615Z,2.00
2019-01-14T10:46:01.923Z,1.57
2019-01-14T10:48:34.189Z,1.53
2019-01-14T10:51:06.694Z,0.83
2019-01-14T10:53:38.968Z,1.30
2019-01-14T10:56:11.278Z,1.70
2019-01-14T10:58:43.584Z,0.90
2019-01-14T11:01:15.891Z,1.17
2019-01-14T11:03:48.158Z,1.10
2019-01-14T11:06:20.715Z,1.10
2019-01-14T11:08:57.625Z,0.73
2019-01-14T11:11:27.246Z,1.00
2019-01-14T11:13:59.773Z,1.33
2019-01-14T11:16:32.261Z,0.87
2019-01-14T11:19:04.528Z,1.13
2019-01-14T11:21:36.942Z,1.30
2019-01-14T11:24:09.318Z,1.13
2019-01-14T11:26:41.728Z,1.20
2019-01-14T11:29:14.005Z,1.20
2019-01-14T11:31:46.415Z,1.30
2019-01-14T11:34:18.582Z,2.63
2019-01-14T11:36:50.804Z,3.03
2019-01-14T11:39:23.719Z,2.70
2019-01-14T11:41:56.346Z,2.23
2019-01-14T11:44:28.519Z,1.90
2019-01-14T11:47:00.834Z,1.87
2019-01-14T11:49:32.999Z,1.80
2019-01-14T11:52:05.516Z,1.80
2019-01-14T11:54:37.813Z,2.37
2019-01-14T11:57:10.279Z,1.30
2019-01-14T11:59:42.543Z,1.13
2019-01-14T12:02:14.956Z,1.40
2019-01-14T12:04:47.121Z,1.20
2019-01-14T12:07:19.520Z,1.10
2019-01-14T12:09:51.702Z,0.73
2019-01-14T12:12:24.114Z,1.20
2019-01-14T12:14:56.278Z,0.90
2019-01-14T12:17:28.684Z,0.90
2019-01-14T12:20:00.947Z,0.83
2019-01-14T12:22:33.152Z,1.20
2019-01-14T12:25:06.194Z,0.90
2019-01-14T12:27:38.606Z,0.77
2019-01-14T12:30:39.857Z,0.87
2019-01-14T12:33:12.178Z,0.80
2019-01-14T12:35:44.339Z,0.90
2019-01-14T12:38:16.557Z,1.40
2019-01-14T12:40:48.920Z,0.90
2019-01-14T12:43:21.238Z,1.33
2019-01-14T12:45:53.497Z,0.80
2019-01-14T12:48:25.715Z,0.80
2019-01-14T12:50:57.969Z,0.93
2019-01-14T12:53:30.613Z,0.73
2019-01-14T12:56:02.975Z,1.27
2019-01-14T12:58:35.309Z,1.03
2019-01-14T13:01:07.685Z,0.80
2019-01-14T13:03:39.993Z,0.90
2019-01-14T13:06:12.480Z,0.73
2019-01-14T13:08:44.783Z,0.90
2019-01-14T13:11:17.055Z,0.90
2019-01-14T13:13:49.352Z,0.70
2019-01-14T13:16:21.824Z,1.43
2019-01-14T13:18:54.529Z,0.50
2019-01-14T13:21:26.954Z,1.03
2019-01-14T13:23:59.169Z,0.60
2019-01-14T13:26:31.689Z,0.90
2019-01-14T13:29:04.005Z,0.73
2019-01-14T13:31:36.318Z,0.97
2019-01-14T13:34:08.739Z,0.70
2019-01-14T13:36:41.052Z,0.70
2019-01-14T13:39:13.563Z,0.60
2019-01-14T13:41:45.985Z,0.70
2019-01-14T13:44:18.159Z,0.90
2019-01-14T13:46:50.381Z,0.77
2019-01-14T13:49:22.748Z,1.30
2019-01-14T13:51:55.169Z,0.70
2019-01-14T13:54:27.377Z,0.93
2019-01-14T13:56:59.762Z,1.10
2019-01-14T13:59:31.924Z,0.80
2019-01-14T14:02:04.345Z,1.10
2019-01-14T14:04:36.806Z,0.87
2019-01-14T14:07:09.223Z,0.90
2019-01-14T14:09:41.507Z,1.50
2019-01-14T14:12:13.780Z,0.93
2019-01-14T14:14:46.039Z,0.87
2019-01-14T14:17:18.355Z,1.30
2019-01-14T14:19:50.511Z,1.20
2019-01-14T14:22:22.796Z,1.17
2019-01-14T14:24:54.964Z,0.90
2019-01-14T14:27:27.379Z,1.30
2019-01-14T14:29:59.738Z,0.83
2019-01-14T14:32:32.049Z,1.30
2019-01-14T14:35:04.637Z,1.93
2019-01-14T14:37:37.050Z,0.80
2019-01-14T14:40:10.682Z,0.53
2019-01-14T14:42:42.995Z,0.53
2019-01-14T14:45:17.366Z,1.00
2019-01-14T14:47:49.675Z,0.63
2019-01-14T14:50:22.197Z,0.80
2019-01-14T14:52:54.709Z,0.43
2019-01-14T14:55:27.019Z,0.67
2019-01-14T14:57:59.529Z,0.93
2019-01-14T15:00:31.906Z,0.63
2019-01-14T15:03:04.218Z,0.80
2019-01-14T15:05:36.388Z,0.90
2019-01-14T15:08:08.791Z,0.77
2019-01-14T15:10:41.055Z,1.37
2019-01-14T15:13:13.451Z,0.90
2019-01-14T15:15:45.716Z,0.57
2019-01-14T15:18:17.988Z,0.77
2019-01-14T15:20:50.272Z,0.63
2019-01-14T15:23:22.481Z,0.60
2019-01-14T15:25:54.743Z,0.77
2019-01-14T15:28:27.139Z,0.80
2019-01-14T15:30:59.308Z,1.93
2019-01-14T15:33:31.901Z,1.13
2019-01-14T15:36:04.272Z,1.00
2019-01-14T15:38:36.485Z,0.93
2019-01-14T15:41:09.676Z,0.70
2019-01-14T15:43:41.892Z,0.77
2019-01-14T15:46:14.164Z,0.60
2019-01-14T15:48:46.368Z,0.57
2019-01-14T15:51:18.734Z,1.20
2019-01-14T15:53:51.089Z,1.53
2019-01-14T15:56:23.500Z,2.10
2019-01-14T15:58:55.867Z,3.20
2019-01-14T16:01:28.129Z,3.47
2019-01-14T16:04:00.450Z,2.30
2019-01-14T16:06:32.613Z,1.93
2019-01-14T16:09:07.298Z,2.33
2019-01-14T16:11:39.566Z,3.20
2019-01-14T16:14:11.871Z,2.97
2019-01-14T16:16:44.033Z,1.00
2019-01-14T16:19:16.350Z,1.17
2019-01-14T16:21:48.514Z,1.00
2019-01-14T16:24:20.933Z,1.10
2019-01-14T16:26:53.241Z,0.57
2019-01-14T16:29:25.462Z,1.43
2019-01-14T16:31:57.619Z,1.70
2019-01-14T16:34:29.833Z,1.10
2019-01-14T16:37:02.197Z,1.20
2019-01-14T16:39:34.412Z,0.80
2019-01-14T16:42:06.783Z,0.43
2019-01-14T16:44:39.100Z,0.90
2019-01-14T16:47:11.564Z,0.70
2019-01-14T16:49:43.850Z,0.80
2019-01-14T16:52:16.208Z,0.77
2019-01-14T16:54:48.518Z,0.60
2019-01-14T16:57:20.680Z,0.60
2019-01-14T16:59:53.135Z,0.90
2019-01-14T17:02:25.305Z,0.90
2019-01-14T17:04:57.621Z,1.07
2019-01-14T17:07:29.783Z,0.90
2019-01-14T17:10:01.995Z,1.20
2019-01-14T17:12:34.158Z,0.80
2019-01-14T17:15:07.332Z,0.80
2019-01-14T17:17:39.491Z,1.10
2019-01-14T17:20:18.741Z,0.90
2019-01-14T17:22:51.187Z,0.77
2019-01-14T17:25:23.597Z,1.10
2019-01-14T17:27:55.970Z,0.70
2019-01-14T17:30:28.379Z,0.90
2019-01-14T17:33:00.639Z,0.80
2019-01-14T17:35:33.048Z,0.80
2019-01-14T17:38:05.319Z,0.70
2019-01-14T17:40:37.533Z,0.90
2019-01-14T17:43:09.794Z,1.37
2019-01-14T17:45:42.107Z,1.53
2019-01-14T17:48:14.474Z,1.23
2019-01-14T17:50:46.687Z,1.20
2019-01-14T17:53:18.949Z,1.10
2019-01-14T17:55:51.320Z,0.70
2019-01-14T17:58:23.492Z,0.77
2019-01-14T18:00:55.806Z,0.67
2019-01-14T18:03:28.079Z,0.80
2019-01-14T18:06:00.387Z,0.90
2019-01-14T18:08:32.654Z,1.27
2019-01-14T18:11:04.966Z,2.87
2019-01-14T18:13:37.235Z,1.83
2019-01-14T18:16:09.740Z,1.03
2019-01-14T18:18:41.909Z,0.70
2019-01-14T18:21:14.288Z,1.33
2019-01-14T18:23:46.469Z,1.70
2019-01-14T18:26:19.813Z,1.37
2019-01-14T18:28:51.965Z,1.87
2019-01-14T18:31:24.423Z,3.67
2019-01-14T18:33:56.596Z,3.43
2019-01-14T18:36:29.211Z,2.90
2019-01-14T18:39:01.577Z,3.63
2019-01-14T18:41:33.859Z,3.50
2019-01-14T18:44:07.086Z,1.77
2019-01-14T18:46:39.389Z,2.60
2019-01-14T18:49:12.186Z,1.87
2019-01-14T18:51:44.485Z,2.50
2019-01-14T18:54:16.758Z,3.70
2019-01-14T18:56:49.012Z,5.00
2019-01-14T18:59:21.382Z,3.00
2019-01-14T19:01:53.700Z,2.87
2019-01-14T19:04:25.866Z,2.13
2019-01-14T19:06:58.190Z,2.40
2019-01-14T19:09:30.447Z,2.80
2019-01-14T19:12:02.978Z,2.30
2019-01-14T19:14:35.400Z,2.57
2019-01-14T19:17:08.700Z,2.27
2019-01-14T19:19:40.865Z,1.73
2019-01-14T19:22:13.287Z,1.60
2019-01-14T19:24:45.452Z,1.37
2019-01-14T19:27:18.046Z,1.00
2019-01-14T19:29:50.311Z,1.60
2019-01-14T19:32:22.619Z,1.30
2019-01-14T19:34:54.881Z,0.80
2019-01-14T19:37:27.294Z,1.60
2019-01-14T19:39:59.457Z,0.97
2019-01-14T19:42:31.765Z,1.50
2019-01-14T19:45:04.037Z,1.17
2019-01-14T19:47:36.357Z,0.90
2019-01-14T19:50:13.427Z,0.90
2019-01-14T19:52:46.146Z,1.10
2019-01-14T19:55:18.786Z,0.93
2019-01-14T19:57:51.345Z,0.60
2019-01-14T20:00:28.405Z,1.23
2019-01-14T20:03:01.190Z,1.00
2019-01-14T20:05:33.533Z,1.37
2019-01-14T20:08:06.339Z,2.00
2019-01-14T20:10:38.511Z,1.90
2019-01-14T20:13:10.829Z,1.80
2019-01-14T20:15:43.093Z,1.20
2019-01-14T20:18:15.497Z,1.20
2019-01-14T20:20:47.961Z,1.80
2019-01-14T20:23:20.349Z,2.27
2019-01-14T20:25:52.515Z,1.70
2019-01-14T20:28:24.731Z,2.07
2019-01-14T20:30:56.897Z,2.37
2019-01-14T20:33:29.119Z,3.13
2019-01-14T20:36:01.293Z,1.17
2019-01-14T20:38:33.703Z,1.03
2019-01-14T20:41:06.070Z,1.03
2019-01-14T20:43:38.282Z,0.97
2019-01-14T20:46:10.548Z,1.13
2019-01-14T20:48:42.767Z,1.17
2019-01-14T20:51:15.130Z,1.30
2019-01-14T20:53:47.350Z,1.20
2019-01-14T20:56:19.510Z,1.10
2019-01-14T20:58:51.867Z,1.30
2019-01-14T21:01:24.214Z,1.53
2019-01-14T21:03:56.729Z,1.40
2019-01-14T21:06:29.313Z,0.90
2019-01-14T21:09:01.973Z,1.20
2019-01-14T21:11:34.542Z,1.20
2019-01-14T21:14:07.462Z,1.00
2019-01-14T21:16:40.023Z,1.00
2019-01-14T21:19:12.640Z,1.33
2019-01-14T21:21:45.206Z,1.47
2019-01-14T21:24:17.817Z,1.00
2019-01-14T21:26:50.404Z,1.20
2019-01-14T21:29:26.027Z,0.97
2019-01-14T21:31:57.324Z,1.30
2019-01-14T21:34:29.939Z,1.80
2019-01-14T21:37:02.509Z,1.17
2019-01-14T21:39:35.123Z,1.30
2019-01-14T21:42:07.686Z,1.27
2019-01-14T21:44:40.305Z,0.93
2019-01-14T21:47:12.949Z,0.67
2019-01-14T21:49:45.566Z,0.70
2019-01-14T21:52:18.198Z,0.97
2019-01-14T21:54:50.712Z,0.87
2019-01-14T21:57:23.276Z,1.50
2019-01-14T21:59:55.922Z,0.77
2019-01-14T22:02:28.479Z,0.90
2019-01-14T22:05:01.097Z,1.07
2019-01-14T22:07:33.662Z,0.70
2019-01-14T22:10:07.914Z,0.93
2019-01-14T22:12:40.477Z,0.80
2019-01-14T22:15:13.452Z,0.70
2019-01-14T22:17:46.016Z,0.70
2019-01-14T22:20:24.961Z,1.20
2019-01-14T22:22:57.546Z,0.90
2019-01-14T22:25:30.160Z,1.43
2019-01-14T22:28:02.720Z,0.90
2019-01-14T22:30:38.459Z,0.60
2019-01-14T22:33:11.024Z,1.30
2019-01-14T22:35:43.637Z,1.00
2019-01-14T22:38:16.206Z,0.80
2019-01-14T22:40:48.822Z,0.90
2019-01-14T22:43:20.970Z,1.57
2019-01-14T22:45:53.180Z,0.87
2019-01-14T22:48:25.446Z,0.87
2019-01-14T22:50:57.762Z,0.90
2019-01-14T22:53:29.935Z,1.10
2019-01-14T22:56:02.319Z,1.00
2019-01-14T22:58:34.478Z,1.23
2019-01-14T23:01:35.404Z,1.00
2019-01-14T23:04:08.077Z,1.00
2019-01-14T23:06:40.438Z,0.80
2019-01-14T23:09:13.144Z,1.37
2019-01-14T23:11:45.454Z,1.13
2019-01-14T23:14:17.720Z,1.27
2019-01-14T23:16:50.042Z,1.10
2019-01-14T23:19:22.307Z,1.37
2019-01-14T23:21:54.629Z,1.37
2019-01-14T23:24:26.998Z,1.17
2019-01-14T23:26:59.317Z,1.00
2019-01-14T23:29:31.483Z,1.30
2019-01-14T23:32:03.695Z,1.50
2019-01-14T23:34:35.862Z,0.90
2019-01-14T23:37:08.178Z,1.50
2019-01-14T23:39:40.439Z,1.20
2019-01-14T23:42:12.724Z,1.10
2019-01-14T23:44:44.979Z,0.93
2019-01-14T23:47:17.359Z,1.07
2019-01-14T23:49:49.522Z,0.93
2019-01-14T23:52:21.736Z,1.30
2019-01-14T23:54:53.994Z,1.43
2019-01-14T23:57:26.204Z,1.63
2019-01-14T23:59:58.374Z,0.90
